Time;durP1;ratioP1;P1;durP2;ratioP2;P2;SDS_P1;SDS_P2;PMS_P1;PMS_P2;Temp;Humidity;BMP_temperature;BMP_pressure;BME280_temperature;BME280_humidity;BME280_pressure;Samples;Min_cycle;Max_cycle;Signal;HPM_P1;HPM_P2
2022/05/04 00:01:18;;;;;;;6.53;1.50;;;9.40;86.10;;;;;;4965323;28;20047;-51
2022/05/04 00:03:43;;;;;;;6.93;1.23;;;9.40;85.80;;;;;;4965964;28;20122;-50
2022/05/04 00:06:10;;;;;;;9.63;1.42;;;9.30;84.60;;;;;;4949353;28;20039;-51
2022/05/04 00:08:37;;;;;;;5.63;1.55;;;9.30;83.70;;;;;;4964142;28;20043;-51
2022/05/04 00:11:03;;;;;;;8.23;1.30;;;9.30;83.60;;;;;;4959100;28;20150;-46
2022/05/04 00:13:29;;;;;;;8.63;1.58;;;9.20;84.30;;;;;;4969836;28;20042;-48
2022/05/04 00:15:54;;;;;;;7.63;1.10;;;9.20;84.00;;;;;;4967877;28;20105;-50
2022/05/04 00:18:20;;;;;;;6.45;1.55;;;9.20;83.60;;;;;;4970830;28;20393;-52
2022/05/04 00:20:46;;;;;;;5.97;1.40;;;9.10;83.30;;;;;;4970793;28;20050;-51
2022/05/04 00:23:12;;;;;;;8.45;1.20;;;9.10;83.10;;;;;;4970552;28;20492;-52
2022/05/04 00:25:38;;;;;;;6.18;1.13;;;9.10;83.60;;;;;;4963829;28;20042;-52
2022/05/04 00:28:04;;;;;;;6.20;1.42;;;9.10;83.50;;;;;;4969017;28;20093;-50
2022/05/04 00:30:31;;;;;;;6.95;1.30;;;9.10;83.70;;;;;;4970645;28;20074;-50
2022/05/04 00:32:58;;;;;;;5.63;1.25;;;9.10;82.90;;;;;;4969632;28;20460;-46
2022/05/04 00:35:23;;;;;;;4.82;0.98;;;9.10;82.70;;;;;;4969690;28;20039;-51
2022/05/04 00:37:49;;;;;;;8.32;1.52;;;9.10;83.80;;;;;;4951568;28;20121;-50
2022/05/04 00:40:15;;;;;;;7.03;1.20;;;9.10;83.60;;;;;;4948295;28;20130;-52
2022/05/04 00:42:41;;;;;;;8.57;1.55;;;9.10;83.70;;;;;;4969105;28;20101;-48
2022/05/04 00:45:07;;;;;;;5.10;1.00;;;9.00;83.80;;;;;;4954211;28;20039;-51
2022/05/04 00:47:32;;;;;;;4.30;1.40;;;9.00;84.00;;;;;;4933072;28;20098;-51
2022/05/04 00:50:05;;;;;;;6.65;1.30;;;9.00;84.30;;;;;;4952242;28;20039;-49
2022/05/04 00:52:35;;;;;;;6.65;1.08;;;9.00;84.60;;;;;;4967492;28;20117;-51
2022/05/04 00:55:02;;;;;;;3.88;1.10;;;9.00;84.40;;;;;;4965421;28;20043;-44
2022/05/04 01:00:34;;;;;;;7.97;1.30;;;9.00;85.20;;;;;;4908753;29;20127;-49
2022/05/04 01:02:59;;;;;;;8.80;1.75;;;9.00;84.90;;;;;;4908041;29;20612;-52
2022/05/04 01:05:25;;;;;;;8.15;1.38;;;9.00;85.60;;;;;;4936158;28;20054;-48
2022/05/04 01:07:51;;;;;;;6.80;1.30;;;9.00;85.70;;;;;;4970639;28;20035;-53
2022/05/04 01:10:17;;;;;;;9.35;1.92;;;9.00;85.70;;;;;;4963988;28;20043;-52
2022/05/04 01:12:48;;;;;;;5.97;1.45;;;9.00;85.20;;;;;;4970331;28;20089;-48
2022/05/04 01:15:15;;;;;;;3.40;0.90;;;9.00;84.80;;;;;;4966667;28;20042;-52
2022/05/04 01:17:41;;;;;;;5.45;1.10;;;9.00;84.90;;;;;;4935573;28;20468;-51
2022/05/04 01:20:08;;;;;;;5.88;1.23;;;8.90;85.40;;;;;;4967020;28;20073;-49
2022/05/04 01:22:35;;;;;;;8.23;1.75;;;9.00;85.00;;;;;;4970175;28;20068;-48
2022/05/04 01:25:00;;;;;;;8.73;1.70;;;9.00;86.10;;;;;;4953152;28;20519;-49
2022/05/04 01:27:26;;;;;;;5.68;1.35;;;8.90;87.10;;;;;;4967087;28;20051;-53
2022/05/04 01:29:52;;;;;;;5.57;1.25;;;9.00;87.20;;;;;;4968334;28;20043;-53
2022/05/04 01:32:18;;;;;;;5.88;1.25;;;9.00;87.50;;;;;;4968686;28;20053;-51
2022/05/04 01:34:43;;;;;;;7.13;1.52;;;9.00;87.40;;;;;;4968656;28;20049;-52
2022/05/04 01:37:09;;;;;;;7.05;1.52;;;9.00;87.10;;;;;;4966911;28;20042;-49
2022/05/04 01:39:36;;;;;;;4.60;1.08;;;9.00;87.70;;;;;;4970180;28;20521;-49
2022/05/04 01:42:05;;;;;;;5.20;0.98;;;9.00;87.60;;;;;;4968798;28;20051;-45
2022/05/04 01:44:34;;;;;;;5.35;1.50;;;8.90;86.80;;;;;;4968201;28;20476;-51
2022/05/04 01:47:00;;;;;;;8.50;1.77;;;8.90;87.00;;;;;;4947430;28;20046;-48
2022/05/04 01:49:27;;;;;;;5.30;1.20;;;8.90;86.80;;;;;;4968933;28;20473;-52
2022/05/04 01:51:52;;;;;;;9.52;1.40;;;8.80;86.70;;;;;;4968571;28;20194;-49
2022/05/04 01:54:18;;;;;;;6.18;1.27;;;8.80;87.90;;;;;;4951546;28;20146;-52
2022/05/04 01:56:44;;;;;;;4.78;1.10;;;8.80;88.30;;;;;;4967928;28;20042;-52
2022/05/04 01:59:09;;;;;;;5.55;1.05;;;8.80;89.00;;;;;;4968501;28;20050;-50
2022/05/04 02:01:38;;;;;;;6.57;1.30;;;8.80;88.50;;;;;;4969041;28;20042;-52
2022/05/04 02:04:04;;;;;;;6.47;1.50;;;8.80;88.90;;;;;;4964225;28;20043;-51
2022/05/04 02:06:30;;;;;;;10.00;1.50;;;8.80;90.40;;;;;;4968200;28;20043;-52
2022/05/04 02:08:57;;;;;;;5.18;1.45;;;8.70;90.90;;;;;;4966364;28;20049;-46
2022/05/04 02:11:23;;;;;;;9.48;1.98;;;8.70;91.30;;;;;;4970508;28;20026;-51
2022/05/04 02:13:49;;;;;;;7.28;1.23;;;8.70;91.50;;;;;;4968429;28;20476;-48
2022/05/04 02:16:15;;;;;;;4.78;1.20;;;8.70;91.50;;;;;;4967422;28;20073;-51
2022/05/04 02:18:41;;;;;;;10.35;1.55;;;8.70;91.70;;;;;;4965262;28;20503;-50
2022/05/04 02:21:07;;;;;;;6.15;1.83;;;8.70;91.50;;;;;;4968390;28;20118;-50
2022/05/04 02:23:33;;;;;;;6.72;1.40;;;8.70;91.70;;;;;;4967974;28;20463;-51
2022/05/04 02:25:58;;;;;;;6.53;1.33;;;8.70;92.30;;;;;;4950206;28;20093;-52
2022/05/04 02:28:24;;;;;;;7.10;1.50;;;8.70;92.00;;;;;;4964321;28;20043;-51
2022/05/04 02:30:49;;;;;;;8.23;1.77;;;8.70;92.00;;;;;;4968211;28;20094;-48
2022/05/04 02:33:15;;;;;;;11.07;1.83;;;8.70;92.10;;;;;;4969422;28;20560;-52
2022/05/04 02:38:27;;;;;;;9.10;1.55;;;8.60;91.70;;;;;;4967089;28;20177;-51
2022/05/04 02:40:53;;;;;;;6.38;1.42;;;8.60;91.10;;;;;;4947987;28;20334;-49
2022/05/04 02:43:18;;;;;;;6.55;1.30;;;8.60;91.20;;;;;;4967760;28;20153;-49
2022/05/04 02:45:44;;;;;;;6.10;1.70;;;8.60;91.20;;;;;;4967734;28;20046;-52
2022/05/04 02:48:10;;;;;;;5.93;1.30;;;8.60;91.20;;;;;;4947443;28;20046;-52
2022/05/04 02:50:36;;;;;;;8.63;1.40;;;8.60;91.00;;;;;;4951990;28;20467;-52
2022/05/04 02:53:03;;;;;;;3.10;1.13;;;8.60;91.20;;;;;;4968003;28;20057;-49
2022/05/04 02:55:28;;;;;;;8.60;1.30;;;8.60;91.20;;;;;;4952872;28;20066;-48
2022/05/04 02:57:54;;;;;;;6.93;1.50;;;8.60;91.10;;;;;;4949809;28;20043;-45
2022/05/04 03:00:19;;;;;;;5.75;1.38;;;8.60;90.90;;;;;;4967226;28;20129;-51
2022/05/04 03:02:45;;;;;;;7.00;1.58;;;8.60;91.00;;;;;;4966281;28;20488;-50
2022/05/04 03:05:12;;;;;;;4.75;1.35;;;8.60;91.00;;;;;;4968072;28;20041;-51
2022/05/04 03:07:38;;;;;;;6.15;1.75;;;8.60;91.40;;;;;;4966307;28;20082;-52
2022/05/04 03:10:05;;;;;;;10.40;1.73;;;8.60;91.70;;;;;;4967092;28;20078;-47
2022/05/04 03:12:30;;;;;;;7.47;1.60;;;8.60;91.70;;;;;;4967184;28;20090;-48
2022/05/04 03:14:56;;;;;;;6.75;1.30;;;8.60;91.70;;;;;;4968047;28;20075;-51
2022/05/04 03:17:22;;;;;;;9.60;1.60;;;8.60;91.60;;;;;;4951648;28;20035;-49
2022/05/04 03:19:49;;;;;;;10.98;1.50;;;8.50;92.10;;;;;;4964673;28;20085;-53
2022/05/04 03:22:15;;;;;;;7.80;1.98;;;8.40;92.30;;;;;;4967311;28;20043;-52
2022/05/04 03:24:41;;;;;;;6.13;1.85;;;8.40;92.70;;;;;;4966835;28;20038;-50
2022/05/04 03:27:07;;;;;;;8.98;1.60;;;8.40;93.40;;;;;;4965982;28;20105;-49
2022/05/04 03:29:33;;;;;;;5.72;1.58;;;8.40;93.20;;;;;;4966827;28;20134;-47
2022/05/04 03:31:59;;;;;;;7.50;1.48;;;8.30;93.20;;;;;;4967400;28;20047;-49
2022/05/04 03:34:25;;;;;;;5.25;1.67;;;8.30;93.20;;;;;;4966784;28;20389;-50
2022/05/04 03:36:51;;;;;;;5.25;1.90;;;8.30;93.70;;;;;;4965176;28;20126;-44
2022/05/04 03:39:18;;;;;;;10.73;1.92;;;8.30;93.50;;;;;;4966741;28;20130;-52
2022/05/04 03:41:44;;;;;;;6.15;1.40;;;8.30;94.00;;;;;;4968279;28;20039;-51
2022/05/04 03:44:10;;;;;;;8.27;1.52;;;8.20;94.00;;;;;;4970826;28;20094;-45
2022/05/04 03:46:48;;;;;;;8.63;2.30;;;8.20;94.20;;;;;;4968585;28;20031;-50
2022/05/04 03:49:16;;;;;;;7.50;1.90;;;8.20;94.90;;;;;;4966778;28;20102;-48
2022/05/04 03:51:42;;;;;;;7.57;2.20;;;8.20;94.50;;;;;;4970060;28;20043;-50
2022/05/04 03:54:09;;;;;;;7.88;2.15;;;8.20;94.60;;;;;;4970282;28;20043;-50
2022/05/04 03:56:35;;;;;;;4.82;1.73;;;8.30;95.20;;;;;;4952392;28;20114;-46
2022/05/04 03:59:02;;;;;;;7.53;1.58;;;8.30;95.60;;;;;;4969813;28;20373;-52
2022/05/04 04:01:28;;;;;;;6.93;2.10;;;8.30;94.80;;;;;;4972995;28;20064;-51
2022/05/04 04:03:54;;;;;;;5.72;1.70;;;8.30;94.30;;;;;;4972308;28;20038;-49
2022/05/04 04:06:19;;;;;;;7.38;1.55;;;8.30;94.10;;;;;;4951215;28;20039;-49
2022/05/04 04:08:45;;;;;;;8.88;1.95;;;8.20;94.00;;;;;;4967785;28;20126;-47
2022/05/04 04:11:11;;;;;;;6.38;1.98;;;8.20;94.10;;;;;;4970912;28;20039;-51
2022/05/04 04:13:40;;;;;;;8.15;2.38;;;8.20;94.10;;;;;;4969386;28;20471;-46
2022/05/04 04:16:06;;;;;;;5.75;1.83;;;8.20;94.50;;;;;;4967880;28;20395;-50
2022/05/04 04:18:31;;;;;;;13.07;2.05;;;8.30;95.10;;;;;;4969406;28;20060;-50
2022/05/04 04:23:42;;;;;;;5.95;1.83;;;8.30;94.90;;;;;;4969287;28;20043;-51
2022/05/04 04:26:09;;;;;;;6.70;1.70;;;8.30;95.30;;;;;;4968079;28;20174;-49
2022/05/04 04:28:38;;;;;;;7.60;1.77;;;8.30;95.20;;;;;;4972877;28;20039;-51
2022/05/04 04:31:04;;;;;;;9.93;2.00;;;8.40;95.30;;;;;;4970387;28;20186;-50
2022/05/04 04:33:30;;;;;;;5.30;1.55;;;8.40;95.40;;;;;;4970128;28;20468;-52
2022/05/04 04:36:00;;;;;;;6.18;1.90;;;8.40;95.40;;;;;;4969883;28;20082;-50
2022/05/04 04:38:26;;;;;;;5.75;2.35;;;8.40;94.90;;;;;;4971138;28;20085;-46
2022/05/04 04:40:52;;;;;;;10.02;2.88;;;8.40;94.90;;;;;;4971264;28;20042;-51
2022/05/04 04:43:19;;;;;;;7.00;2.10;;;8.30;94.90;;;;;;4972907;28;20038;-52
2022/05/04 04:45:46;;;;;;;8.93;1.83;;;8.30;94.80;;;;;;4968843;28;20038;-50
2022/05/04 04:48:12;;;;;;;6.20;2.40;;;8.30;95.40;;;;;;4969698;28;20046;-52
2022/05/04 04:50:38;;;;;;;5.63;2.10;;;8.30;95.60;;;;;;4971734;28;20046;-51
2022/05/04 04:53:04;;;;;;;7.38;1.83;;;8.40;95.80;;;;;;4952725;28;20101;-48
2022/05/04 04:55:29;;;;;;;7.13;2.10;;;8.40;96.10;;;;;;4966025;28;20046;-46
2022/05/04 04:57:55;;;;;;;7.07;1.67;;;8.50;96.40;;;;;;4971835;28;20089;-50
2022/05/04 05:00:21;;;;;;;9.18;2.08;;;8.50;96.70;;;;;;4971172;28;20053;-52
2022/05/04 05:02:50;;;;;;;5.65;1.25;;;8.50;95.60;;;;;;4953633;28;20042;-52
2022/05/04 05:05:16;;;;;;;9.57;1.98;;;8.50;95.10;;;;;;4969364;28;20061;-49
2022/05/04 05:07:41;;;;;;;7.30;1.40;;;8.60;95.10;;;;;;4951136;28;20038;-48
2022/05/04 05:10:07;;;;;;;7.75;1.50;;;8.60;95.10;;;;;;4969591;28;20038;-50
2022/05/04 05:12:33;;;;;;;8.23;1.65;;;8.60;94.90;;;;;;4953990;28;20485;-52
2022/05/04 05:17:43;;;;;;;10.98;1.73;;;8.70;93.90;;;;;;4969862;28;20520;-51
2022/05/04 05:20:10;;;;;;;10.77;2.15;;;8.70;93.90;;;;;;4965653;28;20077;-51
2022/05/04 05:22:35;;;;;;;7.95;2.05;;;8.80;93.60;;;;;;4968216;28;20480;-51
2022/05/04 05:25:01;;;;;;;5.65;2.05;;;8.80;93.60;;;;;;4968585;28;20057;-49
2022/05/04 05:27:29;;;;;;;8.63;2.25;;;8.80;93.10;;;;;;4974885;28;20069;-50
2022/05/04 05:29:55;;;;;;;12.10;1.90;;;8.80;93.30;;;;;;4968483;28;20626;-52
2022/05/04 05:32:21;;;;;;;14.30;2.30;;;8.90;92.70;;;;;;4968352;28;20050;-50
2022/05/04 05:34:47;;;;;;;6.13;1.48;;;8.80;92.20;;;;;;4967561;28;20457;-52
2022/05/04 05:37:13;;;;;;;9.07;1.80;;;8.90;93.30;;;;;;4969529;28;20043;-49
2022/05/04 05:39:40;;;;;;;7.88;2.08;;;8.80;94.00;;;;;;4969397;28;20109;-51
2022/05/04 05:42:07;;;;;;;6.40;1.63;;;8.90;94.50;;;;;;4967086;28;20042;-47
2022/05/04 05:44:32;;;;;;;4.18;1.35;;;8.90;93.90;;;;;;4965864;28;20035;-48
2022/05/04 05:46:58;;;;;;;3.80;1.20;;;9.00;93.90;;;;;;4969003;28;20047;-51
2022/05/04 05:49:24;;;;;;;6.20;1.35;;;9.00;93.40;;;;;;4964874;28;20054;-51
2022/05/04 05:51:49;;;;;;;8.77;1.65;;;9.10;93.30;;;;;;4967823;28;20039;-49
2022/05/04 05:54:15;;;;;;;11.10;1.80;;;9.10;92.60;;;;;;4965956;28;20042;-52
2022/05/04 05:56:40;;;;;;;6.55;1.25;;;9.10;91.60;;;;;;4968138;28;20104;-49
2022/05/04 05:59:06;;;;;;;6.70;1.60;;;9.10;91.00;;;;;;4969593;28;20150;-51
2022/05/04 06:01:32;;;;;;;11.38;1.80;;;9.20;91.30;;;;;;4964416;28;20476;-51
2022/05/04 06:03:57;;;;;;;10.30;1.65;;;9.20;90.70;;;;;;4966438;28;20049;-48
2022/05/04 06:06:23;;;;;;;7.97;1.60;;;9.20;90.50;;;;;;4967195;28;20046;-52
2022/05/04 06:08:49;;;;;;;7.15;1.73;;;9.20;89.60;;;;;;4969124;28;20062;-49
2022/05/04 06:11:14;;;;;;;9.43;2.20;;;9.30;90.00;;;;;;4969067;28;20042;-49
2022/05/04 06:13:40;;;;;;;5.28;1.80;;;9.30;89.60;;;;;;4968805;28;20113;-52
2022/05/04 06:16:05;;;;;;;10.75;1.58;;;9.30;89.40;;;;;;4967240;28;20125;-47
2022/05/04 06:18:31;;;;;;;9.18;2.28;;;9.40;89.40;;;;;;4964889;28;20062;-50
2022/05/04 06:20:59;;;;;;;13.20;2.20;;;9.40;88.40;;;;;;4968623;28;20046;-45
2022/05/04 06:23:25;;;;;;;10.15;2.45;;;9.40;87.60;;;;;;4968688;28;20491;-48
2022/05/04 06:25:52;;;;;;;5.95;2.22;;;9.40;87.00;;;;;;4960139;28;20065;-50
2022/05/04 06:28:17;;;;;;;9.88;1.90;;;9.40;86.90;;;;;;4967203;28;20489;-51
2022/05/04 06:36:12;;;;;;;7.28;2.35;;;9.60;84.20;;;;;;4965653;28;20120;-52
2022/05/04 06:38:37;;;;;;;8.10;1.60;;;9.70;83.00;;;;;;4969364;28;20038;-52
2022/05/04 06:41:05;;;;;;;7.95;1.77;;;9.70;82.90;;;;;;4965147;28;20108;-50
2022/05/04 06:43:32;;;;;;;3.83;1.40;;;9.80;81.60;;;;;;4968773;28;20508;-53
2022/05/04 06:45:58;;;;;;;8.32;1.73;;;9.90;81.70;;;;;;4950774;28;20054;-50
2022/05/04 06:48:24;;;;;;;5.45;1.50;;;9.90;80.00;;;;;;4966856;28;20556;-52
2022/05/04 06:50:49;;;;;;;6.55;1.48;;;10.00;79.50;;;;;;4945466;28;20042;-52
2022/05/04 06:53:15;;;;;;;4.10;1.45;;;10.00;79.30;;;;;;4967522;28;20145;-50
2022/05/04 06:55:41;;;;;;;5.43;1.65;;;10.10;78.30;;;;;;4969667;28;20125;-53
2022/05/04 06:58:06;;;;;;;4.15;1.45;;;10.00;76.20;;;;;;4969626;28;20504;-42
2022/05/04 07:00:32;;;;;;;6.47;1.40;;;10.10;74.70;;;;;;4968018;28;20118;-52
2022/05/04 07:02:57;;;;;;;8.65;1.63;;;10.20;73.70;;;;;;4948585;28;20080;-45
2022/05/04 07:05:23;;;;;;;6.07;1.30;;;10.40;71.50;;;;;;4964474;28;22475;-48
2022/05/04 07:07:49;;;;;;;6.50;1.40;;;10.60;70.30;;;;;;4963606;28;20089;-50
2022/05/04 07:10:14;;;;;;;4.97;1.35;;;10.70;70.90;;;;;;4960647;28;20134;-47
2022/05/04 07:12:40;;;;;;;9.13;1.73;;;10.70;69.70;;;;;;4953263;28;20097;-50
2022/05/04 07:15:06;;;;;;;7.18;1.38;;;10.70;69.20;;;;;;4964530;28;20046;-48
2022/05/04 07:17:32;;;;;;;7.57;1.52;;;10.70;68.40;;;;;;4968212;28;20070;-51
2022/05/04 07:19:58;;;;;;;6.93;1.25;;;10.70;68.30;;;;;;4962913;28;20038;-48
2022/05/04 07:22:24;;;;;;;5.85;1.15;;;10.60;67.60;;;;;;4968100;28;20035;-51
2022/05/04 07:24:50;;;;;;;6.82;1.27;;;10.60;67.80;;;;;;4960858;28;20042;-50
2022/05/04 07:27:15;;;;;;;9.27;1.48;;;10.60;67.30;;;;;;4966496;28;20492;-53
2022/05/04 07:29:46;;;;;;;6.93;1.58;;;10.60;67.70;;;;;;4963509;28;20092;-52
2022/05/04 07:32:12;;;;;;;9.77;1.60;;;10.50;66.90;;;;;;4963695;28;20102;-48
2022/05/04 07:34:38;;;;;;;8.48;1.33;;;10.50;67.50;;;;;;4966101;28;20505;-52
2022/05/04 07:37:04;;;;;;;3.95;1.20;;;10.50;67.00;;;;;;4966404;28;20053;-51
2022/05/04 07:42:21;;;;;;;4.60;1.33;;;10.60;67.50;;;;;;4968625;28;20061;-53
2022/05/04 07:45:03;;;;;;;;;;;10.50;65.50;;;;;;4964713;28;20034;-48
2022/05/04 07:47:34;;;;;;;6.05;1.48;;;10.50;64.60;;;;;;4965197;28;20391;-49
2022/05/04 07:50:00;;;;;;;5.35;1.20;;;10.50;65.30;;;;;;4965456;28;20500;-47
2022/05/04 07:52:27;;;;;;;5.47;1.42;;;10.50;65.80;;;;;;4967737;28;20495;-52
2022/05/04 07:54:53;;;;;;;4.13;1.50;;;10.40;66.50;;;;;;4968853;28;20118;-47
2022/05/04 07:57:20;;;;;;;6.63;1.30;;;10.50;65.70;;;;;;4964520;28;20396;-51
2022/05/04 08:05:16;;;;;;;6.75;1.73;;;10.50;65.50;;;;;;4967330;28;20038;-52
2022/05/04 08:07:41;;;;;;;6.43;1.40;;;10.60;65.40;;;;;;4963914;28;20098;-47
2022/05/04 08:10:07;;;;;;;4.50;1.40;;;10.60;65.60;;;;;;4966931;28;20042;-48
2022/05/04 08:12:33;;;;;;;5.65;1.80;;;10.70;64.50;;;;;;4967537;28;20035;-51
2022/05/04 08:14:59;;;;;;;8.30;1.60;;;10.80;66.00;;;;;;4966568;28;20045;-50
2022/05/04 08:17:25;;;;;;;9.45;1.50;;;10.80;64.40;;;;;;4964524;28;20100;-50
2022/05/04 08:19:51;;;;;;;7.15;1.58;;;10.70;64.10;;;;;;4964542;28;20039;-53
2022/05/04 08:22:17;;;;;;;6.75;1.20;;;10.80;65.10;;;;;;4968331;28;20053;-52
2022/05/04 08:24:43;;;;;;;5.22;1.10;;;10.80;64.80;;;;;;4964699;28;20047;-53
2022/05/04 08:27:08;;;;;;;5.72;1.08;;;10.90;64.20;;;;;;4962692;28;20359;-48
2022/05/04 08:29:34;;;;;;;4.95;1.10;;;10.90;63.70;;;;;;4948149;28;20035;-52
2022/05/04 08:32:00;;;;;;;6.85;1.38;;;11.10;63.40;;;;;;4971592;28;20130;-46
2022/05/04 08:34:26;;;;;;;5.20;1.35;;;11.20;62.20;;;;;;4973411;28;20114;-52
2022/05/04 08:36:52;;;;;;;6.20;1.20;;;11.40;62.10;;;;;;4954170;28;20129;-51
2022/05/04 08:39:17;;;;;;;6.60;1.85;;;11.40;61.40;;;;;;4967732;28;20046;-46
2022/05/04 08:41:43;;;;;;;5.10;1.45;;;11.50;61.70;;;;;;4970722;28;20097;-49
2022/05/04 08:44:11;;;;;;;5.72;1.55;;;11.70;61.90;;;;;;4969630;28;20100;-51
2022/05/04 08:46:39;;;;;;;4.63;1.20;;;11.90;60.90;;;;;;4970326;28;20035;-52
2022/05/04 08:49:06;;;;;;;7.97;1.85;;;11.90;59.60;;;;;;4966116;28;20093;-51
2022/05/04 08:51:33;;;;;;;4.88;1.50;;;12.10;60.30;;;;;;4972191;28;20094;-53
2022/05/04 08:53:58;;;;;;;6.93;1.85;;;12.20;59.40;;;;;;4969064;28;20050;-46
2022/05/04 08:56:24;;;;;;;4.32;1.05;;;12.40;59.30;;;;;;4967087;28;20432;-52
2022/05/04 08:58:50;;;;;;;5.90;1.80;;;12.50;58.00;;;;;;4970796;28;20038;-53
2022/05/04 09:01:15;;;;;;;4.63;1.35;;;12.60;58.50;;;;;;4970190;28;20525;-51
2022/05/04 09:03:41;;;;;;;5.28;1.50;;;12.70;58.20;;;;;;4970134;28;20123;-52
2022/05/04 09:06:07;;;;;;;5.60;1.35;;;12.60;58.20;;;;;;4966745;28;20035;-49
2022/05/04 09:09:06;;;;;;;7.85;1.95;;;12.40;58.70;;;;;;4968920;28;20039;-46
2022/05/04 09:11:32;;;;;;;7.30;1.55;;;12.20;59.60;;;;;;4952477;28;20043;-51
2022/05/04 09:13:59;;;;;;;5.50;1.30;;;12.10;60.20;;;;;;4963614;28;20522;-50
2022/05/04 09:16:33;;;;;;;11.13;1.35;;;12.00;60.40;;;;;;4967275;28;20079;-53
2022/05/04 09:19:01;;;;;;;8.75;1.65;;;12.00;60.00;;;;;;4936423;28;20047;-52
2022/05/04 09:21:27;;;;;;;5.10;1.30;;;12.10;60.30;;;;;;4968266;28;20074;-54
2022/05/04 09:23:53;;;;;;;7.95;1.65;;;12.40;60.50;;;;;;4964946;28;20085;-48
2022/05/04 09:26:20;;;;;;;6.88;1.88;;;12.50;59.30;;;;;;4969414;28;20046;-49
2022/05/04 09:28:51;;;;;;;3.85;1.30;;;12.60;57.90;;;;;;4949990;28;20070;-46
2022/05/04 09:31:18;;;;;;;8.10;1.70;;;12.70;57.50;;;;;;4967000;28;20046;-48
2022/05/04 09:33:52;;;;;;;7.30;1.67;;;12.90;57.90;;;;;;4969635;28;20035;-50
2022/05/04 09:36:36;;;;;;;8.02;1.63;;;13.00;57.70;;;;;;4965957;28;20050;-49
2022/05/04 09:45:16;;;;;;;6.82;1.80;;;12.90;57.40;;;;;;4966978;28;20065;-52
2022/05/04 09:47:47;;;;;;;7.25;1.48;;;13.10;57.60;;;;;;4968393;28;20035;-53
2022/05/04 09:50:15;;;;;;;7.47;1.70;;;13.10;57.40;;;;;;4950503;28;20047;-50
2022/05/04 09:52:50;;;;;;;7.28;1.77;;;13.10;57.40;;;;;;4968488;28;20306;-53
2022/05/04 09:55:24;;;;;;;4.75;1.73;;;13.10;56.30;;;;;;4968870;28;20547;-49
2022/05/04 09:57:54;;;;;;;6.50;1.50;;;13.20;56.30;;;;;;4969490;28;20038;-53
2022/05/04 10:00:21;;;;;;;5.65;1.35;;;13.20;56.30;;;;;;4968220;28;20563;-50
2022/05/04 10:02:48;;;;;;;2.83;1.23;;;13.30;56.20;;;;;;4966323;28;20469;-52
2022/05/04 10:05:16;;;;;;;7.57;1.77;;;13.30;55.90;;;;;;4967723;28;20074;-53
2022/05/04 10:07:42;;;;;;;4.65;1.52;;;13.40;56.30;;;;;;4966563;28;20372;-53
2022/05/04 10:10:09;;;;;;;8.52;1.70;;;13.50;56.90;;;;;;4962462;28;20145;-49
2022/05/04 10:12:39;;;;;;;7.38;1.50;;;13.50;56.30;;;;;;4967866;28;20042;-52
2022/05/04 10:15:13;;;;;;;7.40;1.55;;;13.50;55.60;;;;;;4964603;28;20450;-51
2022/05/04 10:17:45;;;;;;;5.38;1.38;;;13.60;55.70;;;;;;4952183;28;20137;-47
2022/05/04 10:20:30;;;;;;;5.55;1.88;;;13.60;56.00;;;;;;4967130;28;20428;-52
2022/05/04 10:23:15;;;;;;;5.35;1.48;;;13.60;55.60;;;;;;4949575;28;20492;-50
2022/05/04 10:25:42;;;;;;;4.57;1.08;;;13.60;55.80;;;;;;4968738;28;20087;-51
2022/05/04 10:28:14;;;;;;;4.85;1.30;;;13.70;55.90;;;;;;4964391;28;20043;-52
2022/05/04 10:31:12;;;;;;;8.60;1.75;;;13.80;54.60;;;;;;4946523;28;20038;-51
2022/05/04 10:33:38;;;;;;;5.80;1.60;;;14.00;54.60;;;;;;4965495;28;20447;-51
2022/05/04 10:36:14;;;;;;;5.70;1.50;;;14.10;55.00;;;;;;4963700;28;20057;-47
2022/05/04 10:38:43;;;;;;;4.78;1.48;;;14.10;54.50;;;;;;4959469;28;20054;-51
2022/05/04 10:41:09;;;;;;;4.80;1.55;;;14.30;54.90;;;;;;4963503;28;20039;-47
2022/05/04 10:43:43;;;;;;;5.65;1.73;;;14.40;53.90;;;;;;4950122;28;20381;-52
2022/05/04 10:46:21;;;;;;;5.80;1.55;;;14.50;53.80;;;;;;4966372;28;20066;-51
2022/05/04 10:48:50;;;;;;;6.53;1.92;;;14.50;52.70;;;;;;4966732;28;20042;-51
2022/05/04 10:51:18;;;;;;;6.82;1.50;;;14.50;52.90;;;;;;4965429;28;20034;-50
2022/05/04 10:53:55;;;;;;;4.47;1.58;;;14.70;52.70;;;;;;4967828;28;20066;-52
2022/05/04 10:56:23;;;;;;;7.30;1.60;;;14.60;52.20;;;;;;4966657;28;20046;-50
2022/05/04 10:58:55;;;;;;;6.75;2.20;;;14.70;52.80;;;;;;4967137;28;20124;-49
2022/05/04 11:01:30;;;;;;;5.33;1.90;;;14.60;52.40;;;;;;4950070;28;20073;-53
2022/05/04 11:04:11;;;;;;;6.45;1.92;;;14.70;52.70;;;;;;4967412;28;20396;-46
2022/05/04 11:06:40;;;;;;;7.25;1.52;;;14.50;51.40;;;;;;4968879;28;20058;-50
2022/05/04 11:09:11;;;;;;;5.55;1.50;;;14.50;52.80;;;;;;4966353;28;20503;-48
2022/05/04 11:11:42;;;;;;;4.55;1.70;;;14.60;52.80;;;;;;4967012;28;20066;-53
2022/05/04 11:14:09;;;;;;;8.43;1.70;;;14.90;53.00;;;;;;4968812;28;20043;-52
2022/05/04 11:16:36;;;;;;;6.30;1.67;;;15.10;52.90;;;;;;4967399;28;20061;-52
2022/05/04 11:19:04;;;;;;;5.40;1.60;;;15.30;52.50;;;;;;4967076;28;20054;-52
2022/05/04 11:21:30;;;;;;;5.03;1.70;;;15.40;51.70;;;;;;4965390;28;20101;-52
2022/05/04 11:23:58;;;;;;;6.45;1.83;;;15.50;51.10;;;;;;4967410;28;20035;-49
2022/05/04 11:26:26;;;;;;;5.63;1.75;;;15.50;50.80;;;;;;4969906;28;20385;-49
2022/05/04 11:28:53;;;;;;;5.97;1.80;;;15.60;51.40;;;;;;4966907;28;20035;-49
2022/05/04 11:31:20;;;;;;;5.55;1.58;;;15.50;50.30;;;;;;4951994;28;20046;-51
2022/05/04 11:33:48;;;;;;;9.18;2.03;;;15.40;50.80;;;;;;4960945;28;20039;-53
2022/05/04 11:36:17;;;;;;;5.03;1.70;;;15.40;51.00;;;;;;4964741;28;20034;-47
2022/05/04 11:38:46;;;;;;;7.50;2.20;;;15.30;50.40;;;;;;4968052;28;20031;-51
2022/05/04 11:41:12;;;;;;;4.97;1.98;;;15.30;51.00;;;;;;4964310;28;20042;-51
2022/05/04 11:43:38;;;;;;;6.00;1.98;;;15.30;50.80;;;;;;4969066;28;20114;-48
2022/05/04 11:46:07;;;;;;;5.57;1.90;;;15.40;50.80;;;;;;4947595;28;20067;-48
2022/05/04 11:48:35;;;;;;;4.95;2.17;;;15.40;51.20;;;;;;4944559;28;20061;-47
2022/05/04 11:51:02;;;;;;;7.45;1.92;;;15.60;51.40;;;;;;4966921;28;20061;-45
2022/05/04 11:53:27;;;;;;;4.80;1.90;;;15.80;52.40;;;;;;4948701;28;20138;-50
2022/05/04 11:55:53;;;;;;;15.38;2.50;;;16.10;51.30;;;;;;4968144;28;20507;-52
2022/05/04 11:58:19;;;;;;;9.63;2.10;;;16.10;49.80;;;;;;4951753;28;20050;-50
2022/05/04 12:00:45;;;;;;;7.88;2.00;;;16.10;49.70;;;;;;4964012;28;20039;-49
2022/05/04 12:03:11;;;;;;;6.85;2.20;;;16.20;49.80;;;;;;4951308;28;20046;-49
2022/05/04 12:05:38;;;;;;;5.90;2.28;;;16.20;49.80;;;;;;4950639;28;20054;-45
2022/05/04 12:08:04;;;;;;;6.25;1.77;;;16.20;48.80;;;;;;4971529;28;20542;-46
2022/05/04 12:10:31;;;;;;;4.95;1.67;;;16.20;48.50;;;;;;4972465;28;20042;-52
2022/05/04 12:13:00;;;;;;;5.40;2.00;;;16.20;50.20;;;;;;4971923;28;20070;-47
2022/05/04 12:15:31;;;;;;;6.75;2.40;;;16.30;49.20;;;;;;4937230;28;20672;-53
2022/05/04 12:18:08;;;;;;;7.25;2.03;;;16.50;49.00;;;;;;4972179;28;20042;-48
2022/05/04 12:20:34;;;;;;;5.65;2.10;;;16.60;48.50;;;;;;4968572;28;20030;-48
2022/05/04 12:23:01;;;;;;;5.78;1.50;;;16.70;49.00;;;;;;4972056;28;20050;-49
2022/05/04 12:25:27;;;;;;;8.57;2.20;;;16.80;48.90;;;;;;4968800;28;20045;-51
2022/05/04 12:27:56;;;;;;;7.60;1.80;;;16.70;48.30;;;;;;4972594;28;20030;-53
2022/05/04 12:33:10;;;;;;;6.22;1.77;;;16.80;48.00;;;;;;4970257;28;20051;-47
2022/05/04 12:35:45;;;;;;;6.90;2.20;;;16.80;48.50;;;;;;4966087;28;20443;-50
2022/05/04 12:38:15;;;;;;;5.78;2.03;;;16.90;48.20;;;;;;4949430;28;20051;-50
2022/05/04 12:40:41;;;;;;;4.30;1.90;;;17.00;48.00;;;;;;4972760;28;20049;-52
2022/05/04 12:43:08;;;;;;;8.25;2.17;;;17.20;48.80;;;;;;4971400;28;20067;-52
2022/05/04 12:45:38;;;;;;;7.10;2.08;;;17.30;48.50;;;;;;4970081;28;20441;-53
2022/05/04 12:48:09;;;;;;;6.28;2.25;;;17.10;48.20;;;;;;4950830;28;20063;-52
2022/05/04 12:50:37;;;;;;;4.63;1.75;;;17.00;48.70;;;;;;4969604;28;20039;-51
2022/05/04 12:53:04;;;;;;;6.32;2.38;;;17.10;48.60;;;;;;4971064;28;20046;-52
2022/05/04 12:58:14;;;;;;;6.18;2.03;;;17.20;47.30;;;;;;4967102;28;20369;-53
2022/05/04 13:00:41;;;;;;;6.55;1.98;;;17.40;47.10;;;;;;4963458;28;20049;-46
2022/05/04 13:03:09;;;;;;;4.65;2.03;;;17.80;47.40;;;;;;4947258;28;20054;-50
2022/05/04 13:05:35;;;;;;;6.47;2.30;;;18.10;46.10;;;;;;4964367;28;20042;-49
2022/05/04 13:08:00;;;;;;;7.00;2.08;;;17.90;45.20;;;;;;4970608;28;20442;-48
2022/05/04 13:10:26;;;;;;;5.88;1.90;;;17.60;45.80;;;;;;4966651;28;20074;-47
2022/05/04 13:12:52;;;;;;;4.53;2.15;;;17.70;47.70;;;;;;4963970;28;20046;-49
2022/05/04 13:15:18;;;;;;;6.72;2.00;;;17.60;46.10;;;;;;4965180;28;20050;-49
2022/05/04 13:17:43;;;;;;;4.63;1.88;;;17.60;46.50;;;;;;4962999;28;20159;-49
2022/05/04 13:20:13;;;;;;;6.28;2.20;;;17.70;46.50;;;;;;4967673;28;20412;-49
2022/05/04 13:22:39;;;;;;;7.68;2.30;;;17.70;46.20;;;;;;4968311;28;20047;-50
2022/05/04 13:25:05;;;;;;;6.07;2.28;;;17.80;46.00;;;;;;4971396;28;20165;-53
2022/05/04 13:27:30;;;;;;;4.60;1.88;;;17.60;45.60;;;;;;4968238;28;20047;-52